createdAt,value
2018-06-19T00:00:16.728Z,1012.48
2018-06-19T00:01:16.715Z,1012.44
2018-06-19T00:02:16.703Z,1012.42
2018-06-19T00:03:16.693Z,1012.44
2018-06-19T00:04:16.880Z,1012.41
2018-06-19T00:05:16.666Z,1012.4
2018-06-19T00:06:16.659Z,1012.41
2018-06-19T00:07:16.643Z,1012.35
2018-06-19T00:08:16.631Z,1012.36
2018-06-19T00:09:16.618Z,1012.41
2018-06-19T00:10:16.605Z,1012.41
2018-06-19T00:11:16.593Z,1012.45
2018-06-19T00:12:16.580Z,1012.45
2018-06-19T00:13:16.568Z,1012.43
2018-06-19T00:14:16.555Z,1012.4
2018-06-19T00:15:16.544Z,1012.44
2018-06-19T00:16:16.531Z,1012.44
2018-06-19T00:17:16.529Z,1012.5
2018-06-19T00:18:16.506Z,1012.5
2018-06-19T00:19:16.492Z,1012.52
2018-06-19T00:20:16.482Z,1012.46
2018-06-19T00:21:16.468Z,1012.46
2018-06-19T00:22:16.459Z,1012.47
2018-06-19T00:23:16.443Z,1012.46
2018-06-19T00:24:16.433Z,1012.48
2018-06-19T00:25:16.421Z,1012.5
2018-06-19T00:26:16.406Z,1012.48
2018-06-19T00:27:16.395Z,1012.48
2018-06-19T00:28:16.380Z,1012.49
2018-06-19T00:29:16.371Z,1012.53
2018-06-19T00:30:16.355Z,1012.52
2018-06-19T00:31:16.343Z,1012.49
2018-06-19T00:32:16.331Z,1012.49
2018-06-19T00:33:16.317Z,1012.53
2018-06-19T00:34:16.305Z,1012.48
2018-06-19T00:35:16.296Z,1012.49
2018-06-19T00:36:16.279Z,1012.49
2018-06-19T00:37:16.267Z,1012.49
2018-06-19T00:38:16.255Z,1012.49
2018-06-19T00:39:16.241Z,1012.5
2018-06-19T00:40:16.231Z,1012.52
2018-06-19T00:41:16.219Z,1012.54
2018-06-19T00:42:16.207Z,1012.54
2018-06-19T00:43:16.191Z,1012.57
2018-06-19T00:44:16.178Z,1012.53
2018-06-19T00:45:16.170Z,1012.56
2018-06-19T00:46:16.154Z,1012.56
2018-06-19T00:47:16.140Z,1012.58
2018-06-19T00:48:16.127Z,1012.61
2018-06-19T00:49:16.116Z,1012.61
2018-06-19T00:50:16.104Z,1012.62
2018-06-19T00:51:16.094Z,1012.62
2018-06-19T00:52:16.077Z,1012.66
2018-06-19T00:53:16.065Z,1012.65
2018-06-19T00:54:16.052Z,1012.68
2018-06-19T00:55:16.042Z,1012.64
2018-06-19T00:56:16.027Z,1012.68
2018-06-19T00:57:16.017Z,1012.63
2018-06-19T00:58:16.001Z,1012.6
2018-06-19T00:59:15.998Z,1012.64
2018-06-19T01:00:15.976Z,1012.68
2018-06-19T01:01:15.966Z,1012.7
2018-06-19T01:02:15.951Z,1012.67
2018-06-19T01:03:15.939Z,1012.65
2018-06-19T01:04:15.930Z,1012.7
2018-06-19T01:05:15.913Z,1012.66
2018-06-19T01:06:15.900Z,1012.64
2018-06-19T01:07:15.888Z,1012.66
2018-06-19T01:08:15.876Z,1012.71
2018-06-19T01:09:15.872Z,1012.73
2018-06-19T01:10:15.848Z,1012.76
2018-06-19T01:11:15.837Z,1012.79
2018-06-19T01:12:15.826Z,1012.74
2018-06-19T01:13:15.813Z,1012.71
2018-06-19T01:14:15.798Z,1012.7
2018-06-19T01:15:15.787Z,1012.71
2018-06-19T01:16:15.774Z,1012.68
2018-06-19T01:17:15.760Z,1012.72
2018-06-19T01:18:15.750Z,1012.7
2018-06-19T01:19:15.737Z,1012.69
2018-06-19T01:20:15.723Z,1012.67
2018-06-19T01:21:15.709Z,1012.7
2018-06-19T01:22:15.696Z,1012.68
2018-06-19T01:23:15.688Z,1012.71
2018-06-19T01:24:15.672Z,1012.71
2018-06-19T01:25:15.658Z,1012.67
2018-06-19T01:26:15.651Z,1012.66
2018-06-19T01:27:15.634Z,1012.68
2018-06-19T01:28:15.619Z,1012.66
2018-06-19T01:29:15.610Z,1012.64
2018-06-19T01:30:15.595Z,1012.6
2018-06-19T01:31:15.582Z,1012.61
2018-06-19T01:32:15.570Z,1012.57
2018-06-19T01:33:15.561Z,1012.57
2018-06-19T01:34:15.544Z,1012.52
2018-06-19T01:35:15.533Z,1012.54
2018-06-19T01:36:15.520Z,1012.49
2018-06-19T01:37:15.517Z,1012.5
2018-06-19T01:38:15.539Z,1012.48
2018-06-19T01:39:15.481Z,1012.46
2018-06-19T01:40:15.475Z,1012.51
2018-06-19T01:41:15.457Z,1012.51
2018-06-19T01:42:15.448Z,1012.57
2018-06-19T01:43:15.430Z,1012.55
2018-06-19T01:44:15.419Z,1012.48
2018-06-19T01:45:15.406Z,1012.48
2018-06-19T01:46:15.393Z,1012.46
2018-06-19T01:47:15.381Z,1012.46
2018-06-19T01:48:15.373Z,1012.5
2018-06-19T01:49:15.355Z,1012.51
2018-06-19T01:50:15.348Z,1012.5
2018-06-19T01:51:15.334Z,1012.54
2018-06-19T01:52:15.319Z,1012.52
2018-06-19T01:53:15.309Z,1012.52
2018-06-19T01:54:15.295Z,1012.54
2018-06-19T01:55:15.279Z,1012.53
2018-06-19T01:56:15.269Z,1012.56
2018-06-19T01:57:15.260Z,1012.53
2018-06-19T01:58:15.247Z,1012.54
2018-06-19T01:59:15.233Z,1012.57
2018-06-19T02:00:15.219Z,1012.58
2018-06-19T02:01:15.204Z,1012.55
2018-06-19T02:02:15.193Z,1012.57
2018-06-19T02:03:15.182Z,1012.56
2018-06-19T02:04:15.169Z,1012.54
2018-06-19T02:05:15.156Z,1012.57
2018-06-19T02:06:15.144Z,1012.59
2018-06-19T02:07:15.136Z,1012.62
2018-06-19T02:08:15.119Z,1012.58
2018-06-19T02:09:15.106Z,1012.56
2018-06-19T02:10:15.095Z,1012.53
2018-06-19T02:11:15.081Z,1012.54
2018-06-19T02:12:15.067Z,1012.52
2018-06-19T02:13:15.057Z,1012.54
2018-06-19T02:14:15.043Z,1012.55
2018-06-19T02:15:15.030Z,1012.55
2018-06-19T02:16:15.017Z,1012.51
2018-06-19T02:17:15.006Z,1012.51
2018-06-19T02:18:14.992Z,1012.51
2018-06-19T02:19:14.978Z,1012.53
2018-06-19T02:20:14.966Z,1012.55
2018-06-19T02:21:14.954Z,1012.56
2018-06-19T02:22:14.941Z,1012.6
2018-06-19T02:23:14.939Z,1012.58
2018-06-19T02:24:14.921Z,1012.61
2018-06-19T02:25:14.904Z,1012.62
2018-06-19T02:26:14.892Z,1012.62
2018-06-19T02:27:14.881Z,1012.6
2018-06-19T02:28:14.866Z,1012.63
2018-06-19T02:29:14.853Z,1012.6
2018-06-19T02:30:14.844Z,1012.57
2018-06-19T02:31:14.827Z,1012.57
2018-06-19T02:32:14.817Z,1012.55
2018-06-19T02:33:14.804Z,1012.59
2018-06-19T02:34:14.793Z,1012.56
2018-06-19T02:35:14.781Z,1012.59
2018-06-19T02:36:14.765Z,1012.6
2018-06-19T02:37:14.757Z,1012.62
2018-06-19T02:38:14.741Z,1012.63
2018-06-19T02:39:14.729Z,1012.65
2018-06-19T02:40:14.722Z,1012.65
2018-06-19T02:41:14.703Z,1012.65
2018-06-19T02:42:14.691Z,1012.62
2018-06-19T02:43:14.681Z,1012.66
2018-06-19T02:44:14.670Z,1012.62
2018-06-19T02:45:14.652Z,1012.66
2018-06-19T02:46:14.640Z,1012.71
2018-06-19T02:47:14.630Z,1012.65
2018-06-19T02:48:14.617Z,1012.69
2018-06-19T02:49:14.603Z,1012.71
2018-06-19T02:50:14.592Z,1012.64
2018-06-19T02:51:14.579Z,1012.65
2018-06-19T02:52:14.565Z,1012.67
2018-06-19T02:53:14.552Z,1012.64
2018-06-19T02:54:14.541Z,1012.62
2018-06-19T02:55:14.529Z,1012.66
2018-06-19T02:56:14.514Z,1012.68
2018-06-19T02:57:14.503Z,1012.66
2018-06-19T02:58:14.490Z,1012.66
2018-06-19T02:59:14.477Z,1012.68
2018-06-19T03:00:14.522Z,1012.69
2018-06-19T03:01:14.451Z,1012.67
2018-06-19T03:02:14.440Z,1012.69
2018-06-19T03:03:14.427Z,1012.67
2018-06-19T03:04:14.416Z,1012.7
2018-06-19T03:05:14.404Z,1012.67
2018-06-19T03:06:14.390Z,1012.71
2018-06-19T03:07:14.428Z,1012.69
2018-06-19T03:08:14.363Z,1012.69
2018-06-19T03:09:14.350Z,1012.69
2018-06-19T03:10:14.340Z,1012.7
2018-06-19T03:11:14.329Z,1012.73
2018-06-19T03:12:14.313Z,1012.71
2018-06-19T03:13:14.503Z,1012.72
2018-06-19T03:14:14.291Z,1012.73
2018-06-19T03:15:14.282Z,1012.73
2018-06-19T03:16:14.269Z,1012.76
2018-06-19T03:17:14.250Z,1012.77
2018-06-19T03:18:14.239Z,1012.77
2018-06-19T03:19:14.226Z,1012.8
2018-06-19T03:20:14.227Z,1012.75
2018-06-19T03:21:14.200Z,1012.78
2018-06-19T03:22:14.187Z,1012.82
2018-06-19T03:23:14.174Z,1012.8
2018-06-19T03:24:14.162Z,1012.75
2018-06-19T03:25:14.147Z,1012.79
2018-06-19T03:26:14.140Z,1012.76
2018-06-19T03:27:14.123Z,1012.76
2018-06-19T03:28:14.113Z,1012.83
2018-06-19T03:29:14.097Z,1012.74
2018-06-19T03:30:14.146Z,1012.78
2018-06-19T03:31:14.076Z,1012.79
2018-06-19T03:32:14.060Z,1012.84
2018-06-19T03:33:14.047Z,1012.85
2018-06-19T03:34:14.038Z,1012.88
2018-06-19T03:35:14.023Z,1012.85
2018-06-19T03:36:14.010Z,1012.88
2018-06-19T03:37:13.998Z,1012.89
2018-06-19T03:38:13.989Z,1012.88
2018-06-19T03:39:13.972Z,1012.9
2018-06-19T03:40:13.959Z,1012.92
2018-06-19T03:41:13.946Z,1012.96
2018-06-19T03:42:13.938Z,1012.95
2018-06-19T03:43:13.923Z,1012.99
2018-06-19T03:44:13.910Z,1013.01
2018-06-19T03:45:13.896Z,1012.98
2018-06-19T03:46:13.883Z,1013.01
2018-06-19T03:47:13.870Z,1012.99
2018-06-19T03:48:13.857Z,1013.01
2018-06-19T03:49:13.846Z,1013.04
2018-06-19T03:50:13.837Z,1013.07
2018-06-19T03:51:13.820Z,1013.12
2018-06-19T03:52:13.808Z,1013.08
2018-06-19T03:53:13.796Z,1013.12
2018-06-19T03:54:13.783Z,1013.14
2018-06-19T03:55:13.773Z,1013.13
2018-06-19T03:56:13.759Z,1013.12
2018-06-19T03:57:13.745Z,1013.15
2018-06-19T03:58:13.735Z,1013.12
2018-06-19T03:59:13.720Z,1013.06
2018-06-19T04:00:13.707Z,1013.08
2018-06-19T04:01:13.763Z,1013.12
2018-06-19T04:02:13.683Z,1013.11
2018-06-19T04:03:13.671Z,1013.11
2018-06-19T04:04:13.657Z,1013.09
2018-06-19T04:05:13.675Z,1013.12
2018-06-19T04:06:13.631Z,1013.15
2018-06-19T04:07:13.619Z,1013.17
2018-06-19T04:08:13.610Z,1013.19
2018-06-19T04:09:13.595Z,1013.17
2018-06-19T04:10:13.585Z,1013.26
2018-06-19T04:11:13.572Z,1013.22
2018-06-19T04:12:13.557Z,1013.18
2018-06-19T04:13:13.546Z,1013.19
2018-06-19T04:14:13.533Z,1013.19
2018-06-19T04:15:13.521Z,1013.15
2018-06-19T04:16:13.507Z,1013.15
2018-06-19T04:17:13.553Z,1013.16
2018-06-19T04:18:13.485Z,1013.11
2018-06-19T04:19:13.470Z,1013.16
2018-06-19T04:20:13.460Z,1013.2
2018-06-19T04:21:13.444Z,1013.21
2018-06-19T04:22:13.434Z,1013.19
2018-06-19T04:23:13.419Z,1013.21
2018-06-19T04:24:13.412Z,1013.2
2018-06-19T04:25:13.395Z,1013.22
2018-06-19T04:26:13.382Z,1013.29
2018-06-19T04:27:13.373Z,1013.19
2018-06-19T04:28:13.360Z,1013.22
2018-06-19T04:29:13.346Z,1013.2
2018-06-19T04:30:13.335Z,1013.22
2018-06-19T04:31:13.319Z,1013.19
2018-06-19T04:32:13.310Z,1013.21
2018-06-19T04:33:13.293Z,1013.2
2018-06-19T04:34:13.284Z,1013.21
2018-06-19T04:35:13.274Z,1013.2
2018-06-19T04:36:13.257Z,1013.2
2018-06-19T04:37:13.245Z,1013.19
2018-06-19T04:38:13.234Z,1013.28
2018-06-19T04:39:13.220Z,1013.22
2018-06-19T04:40:13.207Z,1013.23
2018-06-19T04:41:13.203Z,1013.27
2018-06-19T04:42:13.184Z,1013.24
2018-06-19T04:43:13.220Z,1013.25
2018-06-19T04:44:13.158Z,1013.25
2018-06-19T04:45:13.147Z,1013.28
2018-06-19T04:46:13.131Z,1013.28
2018-06-19T04:47:13.122Z,1013.3
2018-06-19T04:48:13.109Z,1013.25
2018-06-19T04:49:13.096Z,1013.23
2018-06-19T04:50:13.083Z,1013.24
2018-06-19T04:51:13.072Z,1013.24
2018-06-19T04:52:13.058Z,1013.25
2018-06-19T04:53:13.045Z,1013.29
2018-06-19T04:54:13.033Z,1013.33
2018-06-19T04:55:13.029Z,1013.4
2018-06-19T04:56:13.008Z,1013.35
2018-06-19T04:57:12.996Z,1013.38
2018-06-19T04:58:12.984Z,1013.41
2018-06-19T04:59:12.970Z,1013.41
2018-06-19T05:00:12.959Z,1013.41
2018-06-19T05:01:12.947Z,1013.45
2018-06-19T05:02:12.933Z,1013.45
2018-06-19T05:03:12.922Z,1013.46
2018-06-19T05:04:12.910Z,1013.44
2018-06-19T05:05:12.897Z,1013.46
2018-06-19T05:06:12.884Z,1013.47
2018-06-19T05:07:12.874Z,1013.45
2018-06-19T05:08:12.859Z,1013.46
2018-06-19T05:09:12.860Z,1013.44
2018-06-19T05:10:12.840Z,1013.41
2018-06-19T05:11:12.822Z,1013.38
2018-06-19T05:12:12.809Z,1013.42
2018-06-19T05:13:13.000Z,1013.43
2018-06-19T05:14:12.801Z,1013.44
2018-06-19T05:15:12.778Z,1013.4
2018-06-19T05:16:12.777Z,1013.43
2018-06-19T05:17:12.770Z,1013.45
2018-06-19T05:18:12.749Z,1013.44
2018-06-19T05:19:12.723Z,1013.48
2018-06-19T05:20:12.717Z,1013.47
2018-06-19T05:21:12.698Z,1013.51
2018-06-19T05:22:12.686Z,1013.5
2018-06-19T05:23:12.672Z,1013.54
2018-06-19T05:24:12.668Z,1013.54
2018-06-19T05:25:12.650Z,1013.52
2018-06-19T05:26:12.636Z,1013.54
2018-06-19T05:27:12.624Z,1013.58
2018-06-19T05:28:12.612Z,1013.58
2018-06-19T05:29:12.603Z,1013.66
2018-06-19T05:30:12.587Z,1013.67
2018-06-19T05:31:12.575Z,1013.64
2018-06-19T05:32:12.564Z,1013.69
2018-06-19T05:33:12.548Z,1013.64
2018-06-19T05:34:12.537Z,1013.57
2018-06-19T05:35:12.525Z,1013.6
2018-06-19T05:36:12.514Z,1013.59
2018-06-19T05:37:12.498Z,1013.57
2018-06-19T05:38:12.487Z,1013.55
2018-06-19T05:39:12.479Z,1013.52
2018-06-19T05:40:12.461Z,1013.55
2018-06-19T05:41:12.450Z,1013.5
2018-06-19T05:42:12.437Z,1013.49
2018-06-19T05:43:12.429Z,1013.55
2018-06-19T05:44:12.414Z,1013.57
2018-06-19T05:45:12.403Z,1013.55
2018-06-19T05:46:12.429Z,1013.55
2018-06-19T05:47:12.378Z,1013.61
2018-06-19T05:48:12.364Z,1013.61
2018-06-19T05:49:12.352Z,1013.68
2018-06-19T05:50:12.340Z,1013.7
2018-06-19T05:51:12.327Z,1013.67
2018-06-19T05:52:12.315Z,1013.69
2018-06-19T05:53:12.304Z,1013.67
2018-06-19T05:54:12.297Z,1013.68
2018-06-19T05:55:12.282Z,1013.73
2018-06-19T05:56:12.269Z,1013.68
2018-06-19T05:57:12.255Z,1013.69
2018-06-19T05:58:12.243Z,1013.68
2018-06-19T05:59:12.231Z,1013.74
2018-06-19T06:00:12.272Z,1013.71
2018-06-19T06:01:12.208Z,1013.78
2018-06-19T06:02:12.194Z,1013.75
2018-06-19T06:03:12.183Z,1013.77
2018-06-19T06:04:12.173Z,1013.81
2018-06-19T06:05:12.157Z,1013.81
2018-06-19T06:06:12.145Z,1013.86
2018-06-19T06:07:12.134Z,1013.87
2018-06-19T06:08:12.121Z,1013.93
2018-06-19T06:09:12.111Z,1013.94
2018-06-19T06:10:12.098Z,1013.88
2018-06-19T06:11:12.133Z,1013.91
2018-06-19T06:12:12.076Z,1013.95
2018-06-19T06:13:12.065Z,1013.98
2018-06-19T06:14:12.051Z,1013.96
2018-06-19T06:15:12.038Z,1013.99
2018-06-19T06:16:12.025Z,1014.01
2018-06-19T06:17:12.016Z,1014
2018-06-19T06:18:12.000Z,1014.01
2018-06-19T06:19:11.991Z,1014.04
2018-06-19T06:20:11.980Z,1014.04
2018-06-19T06:21:11.964Z,1014.08
2018-06-19T06:22:12.049Z,1014.07
2018-06-19T06:23:11.943Z,1014.14
2018-06-19T06:24:11.927Z,1014.06
2018-06-19T06:25:11.922Z,1014.12
2018-06-19T06:26:11.906Z,1014.15
2018-06-19T06:27:11.895Z,1014.15
2018-06-19T06:28:11.889Z,1014.16
2018-06-19T06:29:11.868Z,1014.18
2018-06-19T06:30:11.855Z,1014.21
2018-06-19T06:31:11.845Z,1014.24
2018-06-19T06:32:11.837Z,1014.2
2018-06-19T06:33:11.824Z,1014.22
2018-06-19T06:34:11.807Z,1014.24
2018-06-19T06:35:11.796Z,1014.2
2018-06-19T06:36:11.781Z,1014.23
2018-06-19T06:37:11.770Z,1014.28
2018-06-19T06:38:11.757Z,1014.28
2018-06-19T06:39:11.747Z,1014.24
2018-06-19T06:40:11.733Z,1014.29
2018-06-19T06:41:11.720Z,1014.28
2018-06-19T06:42:11.713Z,1014.27
2018-06-19T06:43:11.696Z,1014.29
2018-06-19T06:44:11.682Z,1014.31
2018-06-19T06:45:11.672Z,1014.3
2018-06-19T06:46:11.657Z,1014.25
2018-06-19T06:47:11.647Z,1014.28
2018-06-19T06:48:11.634Z,1014.3
2018-06-19T06:49:11.628Z,1014.26
2018-06-19T06:50:11.640Z,1014.27
2018-06-19T06:51:11.604Z,1014.32
2018-06-19T06:52:11.589Z,1014.33
2018-06-19T06:53:11.573Z,1014.31
2018-06-19T06:54:11.566Z,1014.35
2018-06-19T06:55:11.549Z,1014.3
2018-06-19T06:56:11.584Z,1014.32
2018-06-19T06:57:11.525Z,1014.32
2018-06-19T06:58:11.513Z,1014.33
2018-06-19T06:59:11.505Z,1014.31
2018-06-19T07:00:11.492Z,1014.33
2018-06-19T07:01:11.539Z,1014.32
2018-06-19T07:02:11.467Z,1014.31
2018-06-19T07:03:11.455Z,1014.3
2018-06-19T07:04:11.442Z,1014.35
2018-06-19T07:05:11.433Z,1014.38
2018-06-19T07:06:11.419Z,1014.36
2018-06-19T07:07:11.422Z,1014.32
2018-06-19T07:08:11.399Z,1014.39
2018-06-19T07:09:11.385Z,1014.33
2018-06-19T07:10:11.438Z,1014.31
2018-06-19T07:11:11.369Z,1014.33
2018-06-19T07:12:11.365Z,1014.35
2018-06-19T07:13:11.542Z,1014.36
2018-06-19T07:14:11.329Z,1014.34
2018-06-19T07:15:11.321Z,1014.38
2018-06-19T07:16:11.307Z,1014.35
2018-06-19T07:17:11.299Z,1014.36
2018-06-19T07:18:11.286Z,1014.41
2018-06-19T07:19:11.348Z,1014.36
2018-06-19T07:20:11.268Z,1014.39
2018-06-19T07:21:11.256Z,1014.38
2018-06-19T07:22:11.242Z,1014.42
2018-06-19T07:23:11.229Z,1014.44
2018-06-19T07:24:11.218Z,1014.44
2018-06-19T07:25:11.213Z,1014.45
2018-06-19T07:26:11.242Z,1014.47
2018-06-19T07:27:11.187Z,1014.47
2018-06-19T07:28:11.171Z,1014.41
2018-06-19T07:29:11.161Z,1014.45
2018-06-19T07:30:11.157Z,1014.43
2018-06-19T07:31:11.138Z,1014.42
2018-06-19T07:32:11.130Z,1014.41
2018-06-19T07:33:11.173Z,1014.49
2018-06-19T07:34:11.108Z,1014.46
2018-06-19T07:35:11.094Z,1014.44
2018-06-19T07:36:11.084Z,1014.47
2018-06-19T07:37:11.074Z,1014.52
2018-06-19T07:38:11.175Z,1014.52
2018-06-19T07:39:11.049Z,1014.53
2018-06-19T07:40:11.042Z,1014.55
2018-06-19T07:41:11.030Z,1014.53
2018-06-19T07:42:11.017Z,1014.57
2018-06-19T07:43:11.006Z,1014.61
2018-06-19T07:44:11.069Z,1014.54
2018-06-19T07:45:10.982Z,1014.6
2018-06-19T07:46:10.970Z,1014.64
2018-06-19T07:47:10.962Z,1014.59
2018-06-19T07:48:10.950Z,1014.61
2018-06-19T07:49:10.939Z,1014.65
2018-06-19T07:50:10.926Z,1014.64
2018-06-19T07:51:10.914Z,1014.62
2018-06-19T07:52:10.906Z,1014.67
2018-06-19T07:53:10.892Z,1014.67
2018-06-19T07:54:10.882Z,1014.69
2018-06-19T07:55:10.872Z,1014.72
2018-06-19T07:56:10.858Z,1014.67
2018-06-19T07:57:10.848Z,1014.72
2018-06-19T07:58:10.840Z,1014.71
2018-06-19T07:59:10.825Z,1014.75
2018-06-19T08:00:10.816Z,1014.76
2018-06-19T08:01:10.804Z,1014.73
2018-06-19T08:02:10.792Z,1014.73
2018-06-19T08:03:10.781Z,1014.72
2018-06-19T08:04:10.768Z,1014.74
2018-06-19T08:05:10.758Z,1014.72
2018-06-19T08:06:10.747Z,1014.73
2018-06-19T08:07:10.734Z,1014.73
2018-06-19T08:08:10.724Z,1014.76
2018-06-19T08:09:10.712Z,1014.75
2018-06-19T08:10:10.701Z,1014.82
2018-06-19T08:11:10.689Z,1014.84
2018-06-19T08:12:10.682Z,1014.84
2018-06-19T08:13:10.668Z,1014.82
2018-06-19T08:14:10.655Z,1014.83
2018-06-19T08:15:10.645Z,1014.85
2018-06-19T08:16:10.633Z,1014.9
2018-06-19T08:17:10.625Z,1014.93
2018-06-19T08:18:10.610Z,1014.95
2018-06-19T08:19:10.602Z,1014.95
2018-06-19T08:20:10.592Z,1014.92
2018-06-19T08:21:10.577Z,1014.94
2018-06-19T08:22:10.565Z,1014.95
2018-06-19T08:23:10.554Z,1014.93
2018-06-19T08:24:10.546Z,1014.94
2018-06-19T08:25:10.531Z,1014.92
2018-06-19T08:26:10.520Z,1014.97
2018-06-19T08:27:10.509Z,1015.03
2018-06-19T08:28:10.496Z,1014.98
2018-06-19T08:29:10.487Z,1014.99
2018-06-19T08:30:10.476Z,1015.04
2018-06-19T08:31:10.463Z,1015.05
2018-06-19T08:32:10.451Z,1015.05
2018-06-19T08:33:10.443Z,1015.11
2018-06-19T08:34:10.428Z,1015.01
2018-06-19T08:35:10.417Z,1015.08
2018-06-19T08:36:10.448Z,1015.03
2018-06-19T08:37:10.396Z,1015.13
2018-06-19T08:38:10.384Z,1015.08
2018-06-19T08:39:10.381Z,1015.1
2018-06-19T08:40:10.360Z,1015.14
2018-06-19T08:41:10.351Z,1015.08
2018-06-19T08:42:10.338Z,1015.09
2018-06-19T08:43:10.326Z,1015.08
2018-06-19T08:44:10.314Z,1015.09
2018-06-19T08:45:10.302Z,1015.12
2018-06-19T08:46:10.293Z,1015.09
2018-06-19T08:47:10.283Z,1015.04
2018-06-19T08:48:10.269Z,1015.03
2018-06-19T08:49:10.259Z,1015.05
2018-06-19T08:50:10.251Z,1015.04
2018-06-19T08:51:10.286Z,1015.05
2018-06-19T08:52:10.224Z,1015.07
2018-06-19T08:53:10.212Z,1015.05
2018-06-19T08:54:10.205Z,1015.07
2018-06-19T08:55:10.242Z,1015.02
2018-06-19T08:56:10.182Z,1015.06
2018-06-19T08:57:10.168Z,1015.08
2018-06-19T08:58:10.158Z,1015.06
2018-06-19T08:59:10.146Z,1015.05
2018-06-19T09:00:10.139Z,1015.07
2018-06-19T09:01:10.123Z,1015.08
2018-06-19T09:02:10.117Z,1015.11
2018-06-19T09:03:10.101Z,1015.1
2018-06-19T09:04:10.091Z,1015.08
2018-06-19T09:05:10.082Z,1015.1
2018-06-19T09:06:10.067Z,1015.13
2018-06-19T09:07:10.056Z,1015.15
2018-06-19T09:08:10.049Z,1015.16
2018-06-19T09:09:10.033Z,1015.15
2018-06-19T09:10:10.022Z,1015.21
2018-06-19T09:11:10.016Z,1015.17
2018-06-19T09:12:10.004Z,1015.15
2018-06-19T09:13:09.994Z,1015.17
2018-06-19T09:14:09.979Z,1015.17
2018-06-19T09:15:09.966Z,1015.17
2018-06-19T09:16:10.012Z,1015.2
2018-06-19T09:17:09.948Z,1015.22
2018-06-19T09:18:09.936Z,1015.22
2018-06-19T09:19:09.922Z,1015.24
2018-06-19T09:20:09.930Z,1015.24
2018-06-19T09:21:09.907Z,1015.26
2018-06-19T09:22:09.889Z,1015.26
2018-06-19T09:23:09.878Z,1015.28
2018-06-19T09:24:09.874Z,1015.28
2018-06-19T09:25:09.863Z,1015.28
2018-06-19T09:26:09.846Z,1015.27
2018-06-19T09:27:09.833Z,1015.31
2018-06-19T09:28:09.826Z,1015.32
2018-06-19T09:29:09.812Z,1015.33
2018-06-19T09:30:09.799Z,1015.29
2018-06-19T09:31:09.788Z,1015.3
2018-06-19T09:32:09.777Z,1015.31
2018-06-19T09:33:09.766Z,1015.27
2018-06-19T09:34:09.757Z,1015.27
2018-06-19T09:35:09.747Z,1015.31
2018-06-19T09:36:09.735Z,1015.32
2018-06-19T09:37:09.723Z,1015.27
2018-06-19T09:38:09.713Z,1015.26
2018-06-19T09:39:09.700Z,1015.26
2018-06-19T09:40:09.691Z,1015.28
2018-06-19T09:41:09.678Z,1015.3
2018-06-19T09:42:09.667Z,1015.29
2018-06-19T09:43:09.657Z,1015.29
2018-06-19T09:44:09.646Z,1015.32
2018-06-19T09:45:09.636Z,1015.29
2018-06-19T09:46:09.626Z,1015.3
2018-06-19T09:47:09.616Z,1015.31
2018-06-19T09:48:09.608Z,1015.28
2018-06-19T09:49:09.592Z,1015.29
2018-06-19T09:50:09.584Z,1015.29
2018-06-19T09:51:09.574Z,1015.24
2018-06-19T09:52:09.562Z,1015.25
2018-06-19T09:53:09.554Z,1015.24
2018-06-19T09:54:09.541Z,1015.26
2018-06-19T09:55:09.530Z,1015.28
2018-06-19T09:56:09.521Z,1015.29
2018-06-19T09:57:09.510Z,1015.28
2018-06-19T09:58:09.500Z,1015.25
2018-06-19T09:59:09.595Z,1015.27
2018-06-19T10:00:09.480Z,1015.26
2018-06-19T10:01:09.469Z,1015.26
2018-06-19T10:02:09.459Z,1015.23
2018-06-19T10:03:09.448Z,1015.29
2018-06-19T10:04:09.441Z,1015.28
2018-06-19T10:05:09.428Z,1015.29
2018-06-19T10:06:09.422Z,1015.28
2018-06-19T10:07:09.407Z,1015.26
2018-06-19T10:08:09.399Z,1015.3
2018-06-19T10:09:09.394Z,1015.28
2018-06-19T10:10:09.379Z,1015.27
2018-06-19T10:11:09.434Z,1015.32
2018-06-19T10:12:09.427Z,1015.29
2018-06-19T10:13:09.348Z,1015.33
2018-06-19T10:14:09.337Z,1015.32
2018-06-19T10:15:09.329Z,1015.32
2018-06-19T10:16:09.321Z,1015.34
2018-06-19T10:17:09.308Z,1015.31
2018-06-19T10:18:09.297Z,1015.34
2018-06-19T10:19:09.290Z,1015.34
2018-06-19T10:20:09.278Z,1015.38
2018-06-19T10:21:09.269Z,1015.37
2018-06-19T10:22:09.258Z,1015.41
2018-06-19T10:23:09.248Z,1015.39
2018-06-19T10:24:09.247Z,1015.41
2018-06-19T10:25:09.227Z,1015.44
2018-06-19T10:26:09.219Z,1015.43
2018-06-19T10:27:09.211Z,1015.42
2018-06-19T10:28:09.198Z,1015.4
2018-06-19T10:29:09.187Z,1015.39
2018-06-19T10:30:09.178Z,1015.42
2018-06-19T10:31:09.167Z,1015.43
2018-06-19T10:32:09.158Z,1015.41
2018-06-19T10:33:09.148Z,1015.43
2018-06-19T10:34:09.137Z,1015.46
2018-06-19T10:35:09.130Z,1015.41
2018-06-19T10:36:09.118Z,1015.48
2018-06-19T10:37:09.107Z,1015.49
2018-06-19T10:38:09.098Z,1015.49
2018-06-19T10:39:09.091Z,1015.48
2018-06-19T10:40:09.104Z,1015.5
2018-06-19T10:41:09.072Z,1015.54
2018-06-19T10:42:09.059Z,1015.57
2018-06-19T10:43:09.052Z,1015.57
2018-06-19T10:44:09.040Z,1015.54
2018-06-19T10:45:09.041Z,1015.53
2018-06-19T10:46:09.025Z,1015.54
2018-06-19T10:47:09.019Z,1015.48
2018-06-19T10:48:09.008Z,1015.45
2018-06-19T10:49:09.002Z,1015.44
2018-06-19T10:50:08.990Z,1015.47
2018-06-19T10:51:08.981Z,1015.49
2018-06-19T10:52:08.972Z,1015.5
2018-06-19T10:53:08.963Z,1015.5
2018-06-19T10:54:08.956Z,1015.5
2018-06-19T10:55:08.950Z,1015.5
2018-06-19T10:56:08.941Z,1015.54
2018-06-19T10:57:08.939Z,1015.63
2018-06-19T10:58:08.929Z,1015.63
2018-06-19T10:59:08.918Z,1015.55
2018-06-19T11:00:08.912Z,1015.59
2018-06-19T11:01:08.906Z,1015.58
2018-06-19T11:02:08.898Z,1015.56
2018-06-19T11:03:08.888Z,1015.58
2018-06-19T11:04:08.889Z,1015.57
2018-06-19T11:05:08.949Z,1015.54
2018-06-19T11:06:08.868Z,1015.61
2018-06-19T11:07:08.924Z,1015.57
2018-06-19T11:08:08.856Z,1015.61
2018-06-19T11:09:08.847Z,1015.6
2018-06-19T11:10:08.838Z,1015.59
2018-06-19T11:11:08.831Z,1015.58
2018-06-19T11:12:08.824Z,1015.59
2018-06-19T11:13:08.814Z,1015.59
2018-06-19T11:14:08.842Z,1015.59
2018-06-19T11:15:08.797Z,1015.58
2018-06-19T11:16:08.794Z,1015.52
2018-06-19T11:17:08.783Z,1015.59
2018-06-19T11:18:08.775Z,1015.58
2018-06-19T11:19:08.765Z,1015.6
2018-06-19T11:20:08.835Z,1015.57
2018-06-19T11:21:08.749Z,1015.6
2018-06-19T11:22:08.743Z,1015.63
2018-06-19T11:23:08.742Z,1015.6
2018-06-19T11:24:08.726Z,1015.59
2018-06-19T11:25:08.718Z,1015.61
2018-06-19T11:26:08.708Z,1015.65
2018-06-19T11:27:08.710Z,1015.64
2018-06-19T11:28:08.695Z,1015.63
2018-06-19T11:29:08.740Z,1015.69
2018-06-19T11:30:08.674Z,1015.68
2018-06-19T11:31:08.664Z,1015.71
2018-06-19T11:32:08.657Z,1015.73
2018-06-19T11:33:08.649Z,1015.68
2018-06-19T11:34:08.640Z,1015.72
2018-06-19T11:35:08.632Z,1015.69
2018-06-19T11:36:08.622Z,1015.66
2018-06-19T11:37:08.615Z,1015.67
2018-06-19T11:38:08.607Z,1015.65
2018-06-19T11:39:08.597Z,1015.63
2018-06-19T11:40:08.590Z,1015.63
2018-06-19T11:41:08.584Z,1015.63
2018-06-19T11:42:08.574Z,1015.62
2018-06-19T11:43:08.563Z,1015.64
2018-06-19T11:44:08.555Z,1015.65
2018-06-19T11:45:08.550Z,1015.63
2018-06-19T11:46:08.544Z,1015.62
2018-06-19T11:47:08.531Z,1015.58
2018-06-19T11:48:08.523Z,1015.6
2018-06-19T11:49:08.563Z,1015.6
2018-06-19T11:50:08.505Z,1015.53
2018-06-19T11:51:08.500Z,1015.56
2018-06-19T11:52:08.491Z,1015.57
2018-06-19T11:53:08.480Z,1015.57
2018-06-19T11:54:08.474Z,1015.57
2018-06-19T11:55:08.465Z,1015.54
2018-06-19T11:56:08.461Z,1015.56
2018-06-19T11:57:08.499Z,1015.53
2018-06-19T11:58:08.440Z,1015.58
2018-06-19T11:59:08.435Z,1015.58
2018-06-19T12:00:08.433Z,1015.57
2018-06-19T12:01:08.424Z,1015.59
2018-06-19T12:02:08.409Z,1015.62
2018-06-19T12:03:08.401Z,1015.61
2018-06-19T12:04:08.393Z,1015.58
2018-06-19T12:05:08.386Z,1015.6
2018-06-19T12:06:08.384Z,1015.57
2018-06-19T12:07:08.372Z,1015.61